sensor_id;sensor_type;location;lat;lon;timestamp;P1;durP1;ratioP1;P2;durP2;ratioP2
23682;SDS011;24897;53.514;10.482;2023-11-19T00:01:08;86.13;;;47.80;;
23682;SDS011;24897;53.514;10.482;2023-11-19T00:03:52;98.83;;;51.20;;
23682;SDS011;24897;53.514;10.482;2023-11-19T00:06:37;114.03;;;54.43;;
23682;SDS011;24897;53.514;10.482;2023-11-19T00:09:25;145.47;;;57.23;;
23682;SDS011;24897;53.514;10.482;2023-11-19T00:12:15;121.47;;;52.73;;
23682;SDS011;24897;53.514;10.482;2023-11-19T00:15:16;112.40;;;51.27;;
23682;SDS011;24897;53.514;10.482;2023-11-19T00:18:05;102.63;;;48.70;;
23682;SDS011;24897;53.514;10.482;2023-11-19T00:20:49;134.80;;;54.83;;
23682;SDS011;24897;53.514;10.482;2023-11-19T00:23:39;107.37;;;49.77;;
23682;SDS011;24897;53.514;10.482;2023-11-19T00:26:23;99.63;;;46.87;;
23682;SDS011;24897;53.514;10.482;2023-11-19T00:29:09;99.30;;;46.40;;
23682;SDS011;24897;53.514;10.482;2023-11-19T00:31:54;105.80;;;47.87;;
23682;SDS011;24897;53.514;10.482;2023-11-19T00:34:38;78.63;;;44.03;;
23682;SDS011;24897;53.514;10.482;2023-11-19T00:37:22;75.37;;;43.03;;
23682;SDS011;24897;53.514;10.482;2023-11-19T00:40:10;80.70;;;43.47;;
23682;SDS011;24897;53.514;10.482;2023-11-19T00:42:59;80.60;;;42.77;;
23682;SDS011;24897;53.514;10.482;2023-11-19T00:45:44;89.90;;;41.93;;
23682;SDS011;24897;53.514;10.482;2023-11-19T00:48:41;74.30;;;39.40;;
23682;SDS011;24897;53.514;10.482;2023-11-19T00:51:34;78.80;;;40.20;;
23682;SDS011;24897;53.514;10.482;2023-11-19T00:54:29;96.40;;;42.90;;
23682;SDS011;24897;53.514;10.482;2023-11-19T00:57:21;64.00;;;37.07;;
23682;SDS011;24897;53.514;10.482;2023-11-19T01:03:43;87.30;;;57.97;;
23682;SDS011;24897;53.514;10.482;2023-11-19T01:06:28;70.23;;;38.13;;
23682;SDS011;24897;53.514;10.482;2023-11-19T01:09:19;68.17;;;37.40;;
23682;SDS011;24897;53.514;10.482;2023-11-19T01:12:04;71.07;;;38.00;;
23682;SDS011;24897;53.514;10.482;2023-11-19T01:14:55;65.47;;;36.90;;
23682;SDS011;24897;53.514;10.482;2023-11-19T01:17:43;70.50;;;38.23;;
23682;SDS011;24897;53.514;10.482;2023-11-19T01:20:27;73.33;;;37.70;;
23682;SDS011;24897;53.514;10.482;2023-11-19T01:23:27;73.20;;;38.03;;
23682;SDS011;24897;53.514;10.482;2023-11-19T01:26:15;61.30;;;36.63;;
23682;SDS011;24897;53.514;10.482;2023-11-19T01:32:56;55.67;;;35.77;;
23682;SDS011;24897;53.514;10.482;2023-11-19T01:39:29;55.60;;;35.73;;
23682;SDS011;24897;53.514;10.482;2023-11-19T01:46:01;53.30;;;33.27;;
23682;SDS011;24897;53.514;10.482;2023-11-19T01:49:02;53.30;;;33.40;;
23682;SDS011;24897;53.514;10.482;2023-11-19T01:56:23;54.67;;;34.60;;
23682;SDS011;24897;53.514;10.482;2023-11-19T01:59:17;68.10;;;36.27;;
23682;SDS011;24897;53.514;10.482;2023-11-19T02:02:27;59.87;;;33.87;;
23682;SDS011;24897;53.514;10.482;2023-11-19T02:08:48;62.70;;;35.67;;
23682;SDS011;24897;53.514;10.482;2023-11-19T02:12:21;66.13;;;36.13;;
23682;SDS011;24897;53.514;10.482;2023-11-19T02:15:32;50.70;;;33.77;;
23682;SDS011;24897;53.514;10.482;2023-11-19T02:18:58;62.87;;;34.90;;
23682;SDS011;24897;53.514;10.482;2023-11-19T02:21:46;48.30;;;32.23;;
23682;SDS011;24897;53.514;10.482;2023-11-19T02:24:39;58.13;;;38.20;;
23682;SDS011;24897;53.514;10.482;2023-11-19T02:30:30;49.90;;;35.13;;
23682;SDS011;24897;53.514;10.482;2023-11-19T02:33:26;57.43;;;37.67;;
23682;SDS011;24897;53.514;10.482;2023-11-19T02:36:38;48.30;;;33.70;;
23682;SDS011;24897;53.514;10.482;2023-11-19T02:39:34;49.23;;;33.73;;
23682;SDS011;24897;53.514;10.482;2023-11-19T03:08:12;60.57;;;37.40;;
23682;SDS011;24897;53.514;10.482;2023-11-19T03:11:52;55.37;;;36.57;;
23682;SDS011;24897;53.514;10.482;2023-11-19T03:15:02;53.67;;;36.13;;
23682;SDS011;24897;53.514;10.482;2023-11-19T03:18:05;59.80;;;37.60;;
23682;SDS011;24897;53.514;10.482;2023-11-19T03:24:51;53.23;;;36.30;;
23682;SDS011;24897;53.514;10.482;2023-11-19T03:27:50;48.67;;;34.47;;
23682;SDS011;24897;53.514;10.482;2023-11-19T03:30:46;49.13;;;34.40;;
23682;SDS011;24897;53.514;10.482;2023-11-19T03:41:20;46.60;;;34.20;;
23682;SDS011;24897;53.514;10.482;2023-11-19T03:47:43;56.40;;;37.87;;
23682;SDS011;24897;53.514;10.482;2023-11-19T03:50:36;53.77;;;37.87;;
23682;SDS011;24897;53.514;10.482;2023-11-19T03:53:31;58.17;;;40.20;;
23682;SDS011;24897;53.514;10.482;2023-11-19T03:57:03;61.73;;;38.97;;
23682;SDS011;24897;53.514;10.482;2023-11-19T04:00:06;58.00;;;37.77;;
23682;SDS011;24897;53.514;10.482;2023-11-19T04:03:33;57.60;;;38.33;;
23682;SDS011;24897;53.514;10.482;2023-11-19T04:06:33;52.97;;;37.20;;
23682;SDS011;24897;53.514;10.482;2023-11-19T04:13:28;56.93;;;38.30;;
23682;SDS011;24897;53.514;10.482;2023-11-19T04:16:55;55.60;;;38.17;;
23682;SDS011;24897;53.514;10.482;2023-11-19T04:24:28;63.00;;;42.27;;
23682;SDS011;24897;53.514;10.482;2023-11-19T04:31:28;70.10;;;40.63;;
23682;SDS011;24897;53.514;10.482;2023-11-19T04:34:33;68.23;;;40.57;;
23682;SDS011;24897;53.514;10.482;2023-11-19T04:40:45;62.83;;;39.13;;
23682;SDS011;24897;53.514;10.482;2023-11-19T04:44:09;66.93;;;42.10;;
23682;SDS011;24897;53.514;10.482;2023-11-19T04:47:11;59.20;;;40.07;;
23682;SDS011;24897;53.514;10.482;2023-11-19T04:49:58;61.50;;;39.87;;
23682;SDS011;24897;53.514;10.482;2023-11-19T04:52:51;61.77;;;41.23;;
23682;SDS011;24897;53.514;10.482;2023-11-19T04:55:43;56.80;;;39.63;;
23682;SDS011;24897;53.514;10.482;2023-11-19T04:58:36;59.10;;;38.97;;
23682;SDS011;24897;53.514;10.482;2023-11-19T05:01:22;71.17;;;43.77;;
23682;SDS011;24897;53.514;10.482;2023-11-19T05:04:44;67.90;;;41.97;;
23682;SDS011;24897;53.514;10.482;2023-11-19T05:07:39;89.53;;;45.43;;
23682;SDS011;24897;53.514;10.482;2023-11-19T05:10:44;60.63;;;40.17;;
23682;SDS011;24897;53.514;10.482;2023-11-19T05:16:47;67.17;;;41.07;;
23682;SDS011;24897;53.514;10.482;2023-11-19T05:19:34;99.63;;;46.70;;
23682;SDS011;24897;53.514;10.482;2023-11-19T05:22:21;68.53;;;42.27;;
23682;SDS011;24897;53.514;10.482;2023-11-19T05:25:20;96.93;;;47.50;;
23682;SDS011;24897;53.514;10.482;2023-11-19T05:28:15;92.43;;;46.77;;
23682;SDS011;24897;53.514;10.482;2023-11-19T05:31:02;71.27;;;44.10;;
23682;SDS011;24897;53.514;10.482;2023-11-19T05:33:49;77.93;;;44.77;;
23682;SDS011;24897;53.514;10.482;2023-11-19T05:36:41;85.70;;;44.50;;
23682;SDS011;24897;53.514;10.482;2023-11-19T05:39:27;75.27;;;44.57;;
23682;SDS011;24897;53.514;10.482;2023-11-19T05:42:12;90.00;;;46.00;;
23682;SDS011;24897;53.514;10.482;2023-11-19T05:45:04;158.37;;;54.57;;
23682;SDS011;24897;53.514;10.482;2023-11-19T05:47:52;87.83;;;47.87;;
23682;SDS011;24897;53.514;10.482;2023-11-19T05:50:36;136.00;;;54.50;;
23682;SDS011;24897;53.514;10.482;2023-11-19T05:53:20;152.43;;;56.50;;
23682;SDS011;24897;53.514;10.482;2023-11-19T05:56:04;151.57;;;57.53;;
23682;SDS011;24897;53.514;10.482;2023-11-19T05:58:49;160.97;;;58.37;;
23682;SDS011;24897;53.514;10.482;2023-11-19T06:01:36;139.90;;;58.13;;
23682;SDS011;24897;53.514;10.482;2023-11-19T06:04:20;166.50;;;60.73;;
23682;SDS011;24897;53.514;10.482;2023-11-19T06:07:04;138.23;;;57.40;;
23682;SDS011;24897;53.514;10.482;2023-11-19T06:09:48;137.07;;;58.93;;
23682;SDS011;24897;53.514;10.482;2023-11-19T06:12:37;175.30;;;60.20;;
23682;SDS011;24897;53.514;10.482;2023-11-19T06:15:25;192.93;;;63.63;;
23682;SDS011;24897;53.514;10.482;2023-11-19T06:18:11;194.63;;;61.43;;
23682;SDS011;24897;53.514;10.482;2023-11-19T06:20:56;112.10;;;56.53;;
23682;SDS011;24897;53.514;10.482;2023-11-19T06:23:40;192.13;;;62.97;;
23682;SDS011;24897;53.514;10.482;2023-11-19T06:26:23;182.30;;;63.30;;
23682;SDS011;24897;53.514;10.482;2023-11-19T06:29:08;130.23;;;59.80;;
23682;SDS011;24897;53.514;10.482;2023-11-19T06:31:52;171.87;;;63.77;;
23682;SDS011;24897;53.514;10.482;2023-11-19T06:34:36;166.47;;;64.30;;
23682;SDS011;24897;53.514;10.482;2023-11-19T06:37:20;171.27;;;64.80;;
23682;SDS011;24897;53.514;10.482;2023-11-19T06:40:04;106.00;;;55.47;;
23682;SDS011;24897;53.514;10.482;2023-11-19T06:42:49;148.70;;;63.33;;
23682;SDS011;24897;53.514;10.482;2023-11-19T06:45:36;199.27;;;70.83;;
23682;SDS011;24897;53.514;10.482;2023-11-19T06:48:20;110.63;;;58.87;;
23682;SDS011;24897;53.514;10.482;2023-11-19T06:51:04;120.47;;;61.50;;
23682;SDS011;24897;53.514;10.482;2023-11-19T06:53:49;165.37;;;63.30;;
23682;SDS011;24897;53.514;10.482;2023-11-19T06:56:33;125.07;;;61.23;;
23682;SDS011;24897;53.514;10.482;2023-11-19T06:59:17;154.93;;;66.30;;
23682;SDS011;24897;53.514;10.482;2023-11-19T07:02:02;230.63;;;76.87;;
23682;SDS011;24897;53.514;10.482;2023-11-19T07:04:48;172.03;;;71.13;;
23682;SDS011;24897;53.514;10.482;2023-11-19T07:07:32;202.17;;;74.10;;
23682;SDS011;24897;53.514;10.482;2023-11-19T07:10:17;210.23;;;75.63;;
23682;SDS011;24897;53.514;10.482;2023-11-19T07:13:02;150.30;;;69.50;;
23682;SDS011;24897;53.514;10.482;2023-11-19T07:15:46;207.10;;;73.93;;
23682;SDS011;24897;53.514;10.482;2023-11-19T07:18:30;187.40;;;74.90;;
23682;SDS011;24897;53.514;10.482;2023-11-19T07:21:15;120.33;;;66.23;;
23682;SDS011;24897;53.514;10.482;2023-11-19T07:23:59;116.17;;;62.23;;
23682;SDS011;24897;53.514;10.482;2023-11-19T07:26:43;124.90;;;64.57;;
23682;SDS011;24897;53.514;10.482;2023-11-19T07:29:29;136.53;;;65.63;;
23682;SDS011;24897;53.514;10.482;2023-11-19T07:32:15;134.50;;;73.17;;
23682;SDS011;24897;53.514;10.482;2023-11-19T07:34:59;117.07;;;62.03;;
23682;SDS011;24897;53.514;10.482;2023-11-19T07:37:43;142.63;;;67.00;;
23682;SDS011;24897;53.514;10.482;2023-11-19T07:40:27;114.97;;;58.83;;
23682;SDS011;24897;53.514;10.482;2023-11-19T07:43:11;111.07;;;60.77;;
23682;SDS011;24897;53.514;10.482;2023-11-19T07:45:55;110.23;;;59.80;;
23682;SDS011;24897;53.514;10.482;2023-11-19T07:48:45;86.73;;;47.93;;
23682;SDS011;24897;53.514;10.482;2023-11-19T07:51:35;86.10;;;46.57;;
23682;SDS011;24897;53.514;10.482;2023-11-19T07:58:11;72.30;;;41.20;;
23682;SDS011;24897;53.514;10.482;2023-11-19T08:01:13;86.87;;;43.13;;
23682;SDS011;24897;53.514;10.482;2023-11-19T08:07:33;79.33;;;39.73;;
23682;SDS011;24897;53.514;10.482;2023-11-19T08:10:49;75.77;;;37.37;;
23682;SDS011;24897;53.514;10.482;2023-11-19T08:13:35;66.53;;;36.10;;
23682;SDS011;24897;53.514;10.482;2023-11-19T08:16:19;77.00;;;35.20;;
23682;SDS011;24897;53.514;10.482;2023-11-19T08:19:03;63.77;;;33.50;;
23682;SDS011;24897;53.514;10.482;2023-11-19T08:21:48;68.03;;;34.03;;
23682;SDS011;24897;53.514;10.482;2023-11-19T08:24:32;71.03;;;35.83;;
23682;SDS011;24897;53.514;10.482;2023-11-19T08:27:16;71.53;;;35.67;;
23682;SDS011;24897;53.514;10.482;2023-11-19T08:30:00;67.07;;;34.73;;
23682;SDS011;24897;53.514;10.482;2023-11-19T08:32:44;56.67;;;33.27;;
23682;SDS011;24897;53.514;10.482;2023-11-19T08:35:29;81.17;;;65.23;;
23682;SDS011;24897;53.514;10.482;2023-11-19T08:38:13;78.43;;;60.43;;
23682;SDS011;24897;53.514;10.482;2023-11-19T08:40:57;83.17;;;58.80;;
23682;SDS011;24897;53.514;10.482;2023-11-19T08:43:45;94.17;;;61.07;;
23682;SDS011;24897;53.514;10.482;2023-11-19T08:46:29;78.70;;;59.27;;
23682;SDS011;24897;53.514;10.482;2023-11-19T08:49:13;82.83;;;59.50;;
23682;SDS011;24897;53.514;10.482;2023-11-19T08:51:57;78.63;;;62.20;;
23682;SDS011;24897;53.514;10.482;2023-11-19T08:54:44;74.67;;;57.50;;
23682;SDS011;24897;53.514;10.482;2023-11-19T08:57:28;82.70;;;59.67;;
23682;SDS011;24897;53.514;10.482;2023-11-19T09:00:12;79.57;;;58.40;;
23682;SDS011;24897;53.514;10.482;2023-11-19T09:02:58;73.77;;;54.50;;
23682;SDS011;24897;53.514;10.482;2023-11-19T09:05:42;75.60;;;55.13;;
23682;SDS011;24897;53.514;10.482;2023-11-19T09:08:27;76.77;;;55.00;;
23682;SDS011;24897;53.514;10.482;2023-11-19T09:11:11;77.13;;;55.00;;
23682;SDS011;24897;53.514;10.482;2023-11-19T09:13:55;69.13;;;56.53;;
23682;SDS011;24897;53.514;10.482;2023-11-19T09:16:39;80.60;;;56.83;;
23682;SDS011;24897;53.514;10.482;2023-11-19T09:19:23;79.30;;;56.07;;
23682;SDS011;24897;53.514;10.482;2023-11-19T09:22:08;71.00;;;54.03;;
23682;SDS011;24897;53.514;10.482;2023-11-19T09:24:52;63.00;;;52.27;;
23682;SDS011;24897;53.514;10.482;2023-11-19T09:27:36;65.03;;;52.20;;
23682;SDS011;24897;53.514;10.482;2023-11-19T09:30:20;72.17;;;50.90;;
23682;SDS011;24897;53.514;10.482;2023-11-19T09:33:04;66.50;;;50.77;;
23682;SDS011;24897;53.514;10.482;2023-11-19T09:35:49;73.20;;;51.37;;
23682;SDS011;24897;53.514;10.482;2023-11-19T09:38:34;67.70;;;50.33;;
23682;SDS011;24897;53.514;10.482;2023-11-19T09:41:21;71.13;;;46.07;;
23682;SDS011;24897;53.514;10.482;2023-11-19T09:44:08;60.37;;;44.37;;
23682;SDS011;24897;53.514;10.482;2023-11-19T09:46:53;67.40;;;46.13;;
23682;SDS011;24897;53.514;10.482;2023-11-19T09:49:37;67.00;;;46.60;;
23682;SDS011;24897;53.514;10.482;2023-11-19T09:52:21;59.37;;;29.80;;
23682;SDS011;24897;53.514;10.482;2023-11-19T09:55:08;57.07;;;30.47;;
23682;SDS011;24897;53.514;10.482;2023-11-19T09:57:52;54.77;;;30.50;;
23682;SDS011;24897;53.514;10.482;2023-11-19T10:00:36;63.10;;;30.90;;
23682;SDS011;24897;53.514;10.482;2023-11-19T10:03:21;66.13;;;31.87;;
23682;SDS011;24897;53.514;10.482;2023-11-19T10:06:07;57.93;;;31.30;;
23682;SDS011;24897;53.514;10.482;2023-11-19T10:08:52;56.87;;;31.17;;
23682;SDS011;24897;53.514;10.482;2023-11-19T10:11:36;59.33;;;30.77;;
23682;SDS011;24897;53.514;10.482;2023-11-19T10:14:22;56.87;;;30.90;;
23682;SDS011;24897;53.514;10.482;2023-11-19T10:17:07;59.23;;;31.17;;
23682;SDS011;24897;53.514;10.482;2023-11-19T10:19:52;57.57;;;30.33;;
23682;SDS011;24897;53.514;10.482;2023-11-19T10:22:36;57.10;;;30.50;;
23682;SDS011;24897;53.514;10.482;2023-11-19T10:28:06;60.33;;;31.67;;
23682;SDS011;24897;53.514;10.482;2023-11-19T10:30:50;58.27;;;32.13;;
23682;SDS011;24897;53.514;10.482;2023-11-19T10:33:42;53.50;;;30.50;;
23682;SDS011;24897;53.514;10.482;2023-11-19T10:36:38;52.17;;;31.37;;
23682;SDS011;24897;53.514;10.482;2023-11-19T10:39:24;52.47;;;29.67;;
23682;SDS011;24897;53.514;10.482;2023-11-19T10:42:38;45.17;;;30.60;;
23682;SDS011;24897;53.514;10.482;2023-11-19T10:45:22;54.13;;;30.70;;
23682;SDS011;24897;53.514;10.482;2023-11-19T10:48:07;51.40;;;30.73;;
23682;SDS011;24897;53.514;10.482;2023-11-19T10:50:53;57.63;;;30.63;;
23682;SDS011;24897;53.514;10.482;2023-11-19T10:53:40;56.23;;;31.20;;
23682;SDS011;24897;53.514;10.482;2023-11-19T10:56:27;52.97;;;29.77;;
23682;SDS011;24897;53.514;10.482;2023-11-19T10:59:14;51.70;;;29.97;;
23682;SDS011;24897;53.514;10.482;2023-11-19T11:02:01;53.47;;;30.63;;
23682;SDS011;24897;53.514;10.482;2023-11-19T11:04:49;54.97;;;30.53;;
23682;SDS011;24897;53.514;10.482;2023-11-19T11:07:35;48.50;;;29.00;;
23682;SDS011;24897;53.514;10.482;2023-11-19T11:10:20;57.53;;;30.10;;
23682;SDS011;24897;53.514;10.482;2023-11-19T11:13:06;60.23;;;29.87;;
23682;SDS011;24897;53.514;10.482;2023-11-19T11:15:51;51.67;;;30.57;;
23682;SDS011;24897;53.514;10.482;2023-11-19T11:18:37;60.87;;;30.00;;
23682;SDS011;24897;53.514;10.482;2023-11-19T11:21:21;55.60;;;28.80;;
23682;SDS011;24897;53.514;10.482;2023-11-19T11:27:26;55.70;;;28.93;;
23682;SDS011;24897;53.514;10.482;2023-11-19T11:30:29;58.30;;;30.03;;
23682;SDS011;24897;53.514;10.482;2023-11-19T11:33:25;59.07;;;28.63;;
23682;SDS011;24897;53.514;10.482;2023-11-19T11:36:21;53.23;;;29.00;;
23682;SDS011;24897;53.514;10.482;2023-11-19T11:39:06;53.70;;;29.57;;
23682;SDS011;24897;53.514;10.482;2023-11-19T11:42:38;53.23;;;27.47;;
23682;SDS011;24897;53.514;10.482;2023-11-19T11:50:51;46.40;;;28.50;;
23682;SDS011;24897;53.514;10.482;2023-11-19T11:53:36;53.10;;;27.83;;
23682;SDS011;24897;53.514;10.482;2023-11-19T11:56:21;57.07;;;29.70;;
23682;SDS011;24897;53.514;10.482;2023-11-19T11:59:20;52.33;;;28.13;;
23682;SDS011;24897;53.514;10.482;2023-11-19T12:02:17;63.40;;;29.50;;
23682;SDS011;24897;53.514;10.482;2023-11-19T12:05:05;63.60;;;30.77;;
23682;SDS011;24897;53.514;10.482;2023-11-19T12:08:05;47.40;;;28.20;;
23682;SDS011;24897;53.514;10.482;2023-11-19T12:10:51;51.67;;;29.10;;
23682;SDS011;24897;53.514;10.482;2023-11-19T12:13:43;53.87;;;26.60;;
23682;SDS011;24897;53.514;10.482;2023-11-19T12:16:40;60.47;;;28.23;;
23682;SDS011;24897;53.514;10.482;2023-11-19T12:19:24;63.97;;;29.30;;
23682;SDS011;24897;53.514;10.482;2023-11-19T12:22:12;55.43;;;27.50;;
23682;SDS011;24897;53.514;10.482;2023-11-19T12:24:57;54.63;;;27.20;;
23682;SDS011;24897;53.514;10.482;2023-11-19T12:27:49;53.07;;;27.70;;
23682;SDS011;24897;53.514;10.482;2023-11-19T12:30:34;45.67;;;27.17;;
23682;SDS011;24897;53.514;10.482;2023-11-19T12:33:19;51.60;;;27.13;;
23682;SDS011;24897;53.514;10.482;2023-11-19T12:36:04;52.57;;;27.37;;
23682;SDS011;24897;53.514;10.482;2023-11-19T12:38:49;49.47;;;28.10;;
23682;SDS011;24897;53.514;10.482;2023-11-19T12:41:48;44.63;;;26.73;;
23682;SDS011;24897;53.514;10.482;2023-11-19T12:44:33;48.07;;;26.27;;
23682;SDS011;24897;53.514;10.482;2023-11-19T12:47:18;49.53;;;27.37;;
23682;SDS011;24897;53.514;10.482;2023-11-19T12:50:02;45.13;;;27.17;;
23682;SDS011;24897;53.514;10.482;2023-11-19T12:52:56;50.17;;;28.53;;
23682;SDS011;24897;53.514;10.482;2023-11-19T12:55:41;48.97;;;27.83;;
23682;SDS011;24897;53.514;10.482;2023-11-19T12:58:29;53.00;;;28.47;;
23682;SDS011;24897;53.514;10.482;2023-11-19T13:01:17;50.97;;;27.07;;
23682;SDS011;24897;53.514;10.482;2023-11-19T13:04:15;48.23;;;26.77;;
23682;SDS011;24897;53.514;10.482;2023-11-19T13:07:00;58.67;;;27.90;;
23682;SDS011;24897;53.514;10.482;2023-11-19T13:09:44;54.73;;;28.00;;
23682;SDS011;24897;53.514;10.482;2023-11-19T13:12:28;50.27;;;27.23;;
23682;SDS011;24897;53.514;10.482;2023-11-19T13:15:22;51.23;;;26.40;;
23682;SDS011;24897;53.514;10.482;2023-11-19T13:18:08;53.00;;;26.97;;
23682;SDS011;24897;53.514;10.482;2023-11-19T13:20:52;49.53;;;27.47;;
23682;SDS011;24897;53.514;10.482;2023-11-19T13:23:36;51.07;;;28.07;;
23682;SDS011;24897;53.514;10.482;2023-11-19T13:26:21;46.53;;;27.40;;
23682;SDS011;24897;53.514;10.482;2023-11-19T13:29:05;53.27;;;27.97;;
23682;SDS011;24897;53.514;10.482;2023-11-19T13:31:50;52.97;;;26.80;;
23682;SDS011;24897;53.514;10.482;2023-11-19T13:34:34;48.97;;;26.93;;
23682;SDS011;24897;53.514;10.482;2023-11-19T13:37:19;50.13;;;27.23;;
23682;SDS011;24897;53.514;10.482;2023-11-19T13:40:04;49.43;;;28.47;;
23682;SDS011;24897;53.514;10.482;2023-11-19T13:42:48;44.50;;;27.13;;
23682;SDS011;24897;53.514;10.482;2023-11-19T13:45:33;51.93;;;27.80;;
23682;SDS011;24897;53.514;10.482;2023-11-19T13:48:17;50.50;;;28.17;;
23682;SDS011;24897;53.514;10.482;2023-11-19T13:51:01;45.20;;;27.23;;
23682;SDS011;24897;53.514;10.482;2023-11-19T13:53:45;48.23;;;28.20;;
23682;SDS011;24897;53.514;10.482;2023-11-19T13:56:29;45.27;;;27.70;;
23682;SDS011;24897;53.514;10.482;2023-11-19T13:59:13;49.67;;;27.07;;
23682;SDS011;24897;53.514;10.482;2023-11-19T14:01:57;47.77;;;26.80;;
23682;SDS011;24897;53.514;10.482;2023-11-19T14:04:41;46.13;;;27.20;;
23682;SDS011;24897;53.514;10.482;2023-11-19T14:07:25;45.37;;;28.20;;
23682;SDS011;24897;53.514;10.482;2023-11-19T14:10:09;46.00;;;27.13;;
23682;SDS011;24897;53.514;10.482;2023-11-19T14:12:57;48.70;;;27.60;;
23682;SDS011;24897;53.514;10.482;2023-11-19T14:15:42;49.80;;;27.67;;
23682;SDS011;24897;53.514;10.482;2023-11-19T14:18:26;47.13;;;28.23;;
23682;SDS011;24897;53.514;10.482;2023-11-19T14:21:11;49.23;;;28.17;;
23682;SDS011;24897;53.514;10.482;2023-11-19T14:23:55;50.40;;;28.57;;
23682;SDS011;24897;53.514;10.482;2023-11-19T14:26:39;44.60;;;27.03;;
23682;SDS011;24897;53.514;10.482;2023-11-19T14:29:23;50.90;;;28.90;;
23682;SDS011;24897;53.514;10.482;2023-11-19T14:32:09;52.00;;;29.27;;
23682;SDS011;24897;53.514;10.482;2023-11-19T14:34:53;45.30;;;28.33;;
23682;SDS011;24897;53.514;10.482;2023-11-19T14:37:37;50.60;;;28.37;;
23682;SDS011;24897;53.514;10.482;2023-11-19T14:40:22;51.67;;;26.87;;
23682;SDS011;24897;53.514;10.482;2023-11-19T14:43:06;48.33;;;27.67;;
23682;SDS011;24897;53.514;10.482;2023-11-19T14:45:50;53.63;;;29.50;;
23682;SDS011;24897;53.514;10.482;2023-11-19T14:48:34;60.70;;;29.03;;
23682;SDS011;24897;53.514;10.482;2023-11-19T14:51:18;54.07;;;30.03;;
23682;SDS011;24897;53.514;10.482;2023-11-19T14:54:03;48.83;;;28.30;;
23682;SDS011;24897;53.514;10.482;2023-11-19T14:56:48;56.93;;;29.57;;
23682;SDS011;24897;53.514;10.482;2023-11-19T14:59:32;52.73;;;30.07;;
23682;SDS011;24897;53.514;10.482;2023-11-19T15:02:16;67.87;;;29.40;;
23682;SDS011;24897;53.514;10.482;2023-11-19T15:05:00;47.50;;;27.73;;
23682;SDS011;24897;53.514;10.482;2023-11-19T15:07:44;54.83;;;31.37;;
23682;SDS011;24897;53.514;10.482;2023-11-19T15:10:28;54.87;;;31.57;;
23682;SDS011;24897;53.514;10.482;2023-11-19T15:13:12;58.67;;;32.40;;
23682;SDS011;24897;53.514;10.482;2023-11-19T15:15:56;60.97;;;33.80;;
23682;SDS011;24897;53.514;10.482;2023-11-19T15:18:40;60.73;;;32.03;;
23682;SDS011;24897;53.514;10.482;2023-11-19T15:21:25;60.03;;;31.30;;
23682;SDS011;24897;53.514;10.482;2023-11-19T15:24:11;61.70;;;31.03;;
23682;SDS011;24897;53.514;10.482;2023-11-19T15:26:55;62.30;;;32.93;;
23682;SDS011;24897;53.514;10.482;2023-11-19T15:29:40;63.20;;;35.53;;
23682;SDS011;24897;53.514;10.482;2023-11-19T15:32:24;59.10;;;33.50;;
23682;SDS011;24897;53.514;10.482;2023-11-19T15:35:08;59.57;;;31.40;;
23682;SDS011;24897;53.514;10.482;2023-11-19T15:37:54;59.23;;;29.73;;
23682;SDS011;24897;53.514;10.482;2023-11-19T15:40:40;60.43;;;29.17;;
23682;SDS011;24897;53.514;10.482;2023-11-19T15:43:26;59.60;;;32.30;;
23682;SDS011;24897;53.514;10.482;2023-11-19T15:46:10;65.63;;;27.63;;
23682;SDS011;24897;53.514;10.482;2023-11-19T15:48:54;51.90;;;27.33;;
23682;SDS011;24897;53.514;10.482;2023-11-19T15:51:38;55.57;;;27.57;;
23682;SDS011;24897;53.514;10.482;2023-11-19T15:54:22;38.83;;;25.60;;
23682;SDS011;24897;53.514;10.482;2023-11-19T15:57:06;46.53;;;26.73;;
23682;SDS011;24897;53.514;10.482;2023-11-19T15:59:50;41.57;;;24.97;;
23682;SDS011;24897;53.514;10.482;2023-11-19T16:02:35;38.10;;;23.77;;
23682;SDS011;24897;53.514;10.482;2023-11-19T16:05:20;36.63;;;24.37;;
23682;SDS011;24897;53.514;10.482;2023-11-19T16:08:04;39.07;;;25.37;;
23682;SDS011;24897;53.514;10.482;2023-11-19T16:10:49;36.73;;;25.20;;
23682;SDS011;24897;53.514;10.482;2023-11-19T16:13:33;32.73;;;24.50;;
23682;SDS011;24897;53.514;10.482;2023-11-19T16:16:17;35.73;;;25.47;;
23682;SDS011;24897;53.514;10.482;2023-11-19T16:19:01;35.10;;;26.63;;
23682;SDS011;24897;53.514;10.482;2023-11-19T16:21:47;35.30;;;25.13;;
23682;SDS011;24897;53.514;10.482;2023-11-19T16:24:31;35.13;;;24.47;;
23682;SDS011;24897;53.514;10.482;2023-11-19T16:27:15;36.37;;;24.83;;
23682;SDS011;24897;53.514;10.482;2023-11-19T16:29:59;40.43;;;25.67;;
23682;SDS011;24897;53.514;10.482;2023-11-19T16:32:57;39.90;;;24.87;;
23682;SDS011;24897;53.514;10.482;2023-11-19T16:35:42;35.37;;;24.47;;
23682;SDS011;24897;53.514;10.482;2023-11-19T16:38:26;49.20;;;24.57;;
23682;SDS011;24897;53.514;10.482;2023-11-19T16:41:10;46.90;;;26.63;;
23682;SDS011;24897;53.514;10.482;2023-11-19T16:44:00;53.77;;;27.57;;
23682;SDS011;24897;53.514;10.482;2023-11-19T16:46:46;54.73;;;28.70;;
23682;SDS011;24897;53.514;10.482;2023-11-19T16:49:33;55.83;;;28.97;;
23682;SDS011;24897;53.514;10.482;2023-11-19T16:52:18;59.93;;;30.90;;
23682;SDS011;24897;53.514;10.482;2023-11-19T16:55:04;53.50;;;27.30;;
23682;SDS011;24897;53.514;10.482;2023-11-19T16:57:55;51.27;;;25.73;;
23682;SDS011;24897;53.514;10.482;2023-11-19T17:00:39;51.43;;;26.20;;
23682;SDS011;24897;53.514;10.482;2023-11-19T17:03:23;48.37;;;25.23;;
23682;SDS011;24897;53.514;10.482;2023-11-19T17:06:08;47.77;;;23.93;;
23682;SDS011;24897;53.514;10.482;2023-11-19T17:08:53;51.10;;;24.27;;
23682;SDS011;24897;53.514;10.482;2023-11-19T17:11:38;54.07;;;28.13;;
23682;SDS011;24897;53.514;10.482;2023-11-19T17:14:25;48.23;;;26.13;;
23682;SDS011;24897;53.514;10.482;2023-11-19T17:17:09;51.80;;;27.93;;
23682;SDS011;24897;53.514;10.482;2023-11-19T17:19:53;49.67;;;26.77;;
23682;SDS011;24897;53.514;10.482;2023-11-19T17:22:37;43.10;;;23.87;;
23682;SDS011;24897;53.514;10.482;2023-11-19T17:25:22;44.30;;;25.33;;
23682;SDS011;24897;53.514;10.482;2023-11-19T17:28:09;53.07;;;23.70;;
23682;SDS011;24897;53.514;10.482;2023-11-19T17:30:54;45.63;;;21.87;;
23682;SDS011;24897;53.514;10.482;2023-11-19T17:33:38;43.60;;;22.60;;
23682;SDS011;24897;53.514;10.482;2023-11-19T17:36:22;57.47;;;26.03;;
23682;SDS011;24897;53.514;10.482;2023-11-19T17:39:07;45.77;;;23.13;;
23682;SDS011;24897;53.514;10.482;2023-11-19T17:41:51;39.13;;;24.33;;
23682;SDS011;24897;53.514;10.482;2023-11-19T17:44:35;44.77;;;25.60;;
23682;SDS011;24897;53.514;10.482;2023-11-19T17:47:19;51.17;;;27.27;;
23682;SDS011;24897;53.514;10.482;2023-11-19T17:50:04;56.27;;;26.23;;
23682;SDS011;24897;53.514;10.482;2023-11-19T17:52:49;47.07;;;26.93;;